TJNR/NRR METAR and TAF weather

Enter ICAO airport designator
Station Type Date Time Source
TJNR METAR 2023/02/05 12:53 UTC NOAA

TJNR 051253Z AUTO 07009KT 10SM SCT100 27/21 A3020 RMK AO2 SLP227 T02670206


Station Type Date Time Source
TJNR Decoded METAR 2023/02/05 12:53 UTC NOAA

ROOSEVELT ROADS PUERTO RICO, PR, United States (TJNR) 18-15N 65-38W 10M
Feb 05, 2023 - 07:53 AM EST / 2023.02.05 1253 UTC
Wind: from the ENE (070 degrees) at 10 MPH (9 KT):0
Visibility: 10 mile(s):0
Sky conditions: partly cloudy
Temperature: 80.1 F (26.7 C)
Dew Point: 69.1 F (20.6 C)
Relative Humidity: 69%
Pressure (altimeter): 30.2 in. Hg (1022 hPa)
ob: TJNR 051253Z AUTO 07009KT 10SM SCT100 27/21 A3020 RMK AO2 SLP227 T02670206
cycle: 13

Station Type Date Time Source
TJNR TAF UTC NOAA

Error!

Example: see airport list